sensor_id;sensor_type;location;lat;lon;timestamp;P1;durP1;ratioP1;P2;durP2;ratioP2
7573;SDS011;3828;48.922;9.116;2023-02-14T00:02:24;1.90;;;1.90;;
7573;SDS011;3828;48.922;9.116;2023-02-14T00:04:52;1.70;;;1.70;;
7573;SDS011;3828;48.922;9.116;2023-02-14T00:07:18;1.77;;;1.77;;
7573;SDS011;3828;48.922;9.116;2023-02-14T00:09:45;1.60;;;1.60;;
7573;SDS011;3828;48.922;9.116;2023-02-14T00:12:12;1.60;;;1.60;;
7573;SDS011;3828;48.922;9.116;2023-02-14T00:14:39;1.67;;;1.67;;
7573;SDS011;3828;48.922;9.116;2023-02-14T00:17:24;1.87;;;1.87;;
7573;SDS011;3828;48.922;9.116;2023-02-14T00:19:52;1.70;;;1.70;;
7573;SDS011;3828;48.922;9.116;2023-02-14T00:22:19;1.70;;;1.70;;
7573;SDS011;3828;48.922;9.116;2023-02-14T00:24:46;1.60;;;1.60;;
7573;SDS011;3828;48.922;9.116;2023-02-14T00:27:13;1.60;;;1.60;;
7573;SDS011;3828;48.922;9.116;2023-02-14T00:29:40;1.67;;;1.67;;
7573;SDS011;3828;48.922;9.116;2023-02-14T00:32:06;1.60;;;1.60;;
7573;SDS011;3828;48.922;9.116;2023-02-14T00:34:33;1.53;;;1.53;;
7573;SDS011;3828;48.922;9.116;2023-02-14T00:37:03;1.60;;;1.60;;
7573;SDS011;3828;48.922;9.116;2023-02-14T00:39:30;1.40;;;1.40;;
7573;SDS011;3828;48.922;9.116;2023-02-14T00:42:00;2.00;;;2.00;;
7573;SDS011;3828;48.922;9.116;2023-02-14T00:44:27;1.40;;;1.40;;
7573;SDS011;3828;48.922;9.116;2023-02-14T00:46:53;1.90;;;1.90;;
7573;SDS011;3828;48.922;9.116;2023-02-14T00:49:20;1.60;;;1.60;;
7573;SDS011;3828;48.922;9.116;2023-02-14T00:51:48;1.80;;;1.80;;
7573;SDS011;3828;48.922;9.116;2023-02-14T00:54:16;1.67;;;1.67;;
7573;SDS011;3828;48.922;9.116;2023-02-14T00:56:43;1.60;;;1.60;;
7573;SDS011;3828;48.922;9.116;2023-02-14T00:59:09;1.67;;;1.67;;
7573;SDS011;3828;48.922;9.116;2023-02-14T01:01:36;1.90;;;1.90;;
7573;SDS011;3828;48.922;9.116;2023-02-14T01:04:06;1.80;;;1.80;;
7573;SDS011;3828;48.922;9.116;2023-02-14T01:06:32;1.53;;;1.53;;
7573;SDS011;3828;48.922;9.116;2023-02-14T01:08:59;1.80;;;1.80;;
7573;SDS011;3828;48.922;9.116;2023-02-14T01:11:28;1.60;;;1.60;;
7573;SDS011;3828;48.922;9.116;2023-02-14T01:13:55;1.60;;;1.60;;
7573;SDS011;3828;48.922;9.116;2023-02-14T01:16:24;1.67;;;1.67;;
7573;SDS011;3828;48.922;9.116;2023-02-14T01:18:55;1.67;;;1.67;;
7573;SDS011;3828;48.922;9.116;2023-02-14T01:21:25;1.70;;;1.70;;
7573;SDS011;3828;48.922;9.116;2023-02-14T01:23:54;1.70;;;1.70;;
7573;SDS011;3828;48.922;9.116;2023-02-14T01:26:22;1.80;;;1.80;;
7573;SDS011;3828;48.922;9.116;2023-02-14T01:28:52;1.60;;;1.60;;
7573;SDS011;3828;48.922;9.116;2023-02-14T01:31:20;1.73;;;1.73;;
7573;SDS011;3828;48.922;9.116;2023-02-14T01:33:49;1.80;;;1.80;;
7573;SDS011;3828;48.922;9.116;2023-02-14T01:36:16;1.80;;;1.80;;
7573;SDS011;3828;48.922;9.116;2023-02-14T01:38:45;1.80;;;1.80;;
7573;SDS011;3828;48.922;9.116;2023-02-14T01:41:12;1.80;;;1.80;;
7573;SDS011;3828;48.922;9.116;2023-02-14T01:43:57;1.80;;;1.80;;
7573;SDS011;3828;48.922;9.116;2023-02-14T01:46:26;1.80;;;1.80;;
7573;SDS011;3828;48.922;9.116;2023-02-14T01:48:55;1.60;;;1.60;;
7573;SDS011;3828;48.922;9.116;2023-02-14T01:51:25;1.70;;;1.70;;
7573;SDS011;3828;48.922;9.116;2023-02-14T01:53:52;1.50;;;1.50;;
7573;SDS011;3828;48.922;9.116;2023-02-14T01:56:20;1.60;;;1.60;;
7573;SDS011;3828;48.922;9.116;2023-02-14T01:58:53;1.90;;;1.90;;
7573;SDS011;3828;48.922;9.116;2023-02-14T02:01:25;1.57;;;1.57;;
7573;SDS011;3828;48.922;9.116;2023-02-14T02:03:53;1.90;;;1.90;;
7573;SDS011;3828;48.922;9.116;2023-02-14T02:06:24;1.60;;;1.60;;
7573;SDS011;3828;48.922;9.116;2023-02-14T02:08:57;2.00;;;2.00;;
7573;SDS011;3828;48.922;9.116;2023-02-14T02:11:30;1.80;;;1.80;;
7573;SDS011;3828;48.922;9.116;2023-02-14T02:13:58;1.97;;;1.97;;
7573;SDS011;3828;48.922;9.116;2023-02-14T02:16:29;1.70;;;1.70;;
7573;SDS011;3828;48.922;9.116;2023-02-14T02:19:23;1.70;;;1.70;;
7573;SDS011;3828;48.922;9.116;2023-02-14T02:22:23;1.50;;;1.50;;
7573;SDS011;3828;48.922;9.116;2023-02-14T02:25:12;1.60;;;1.60;;
7573;SDS011;3828;48.922;9.116;2023-02-14T02:27:54;1.90;;;1.90;;
7573;SDS011;3828;48.922;9.116;2023-02-14T02:31:02;1.80;;;1.80;;
7573;SDS011;3828;48.922;9.116;2023-02-14T02:34:00;1.90;;;1.90;;
7573;SDS011;3828;48.922;9.116;2023-02-14T02:36:46;1.70;;;1.70;;
7573;SDS011;3828;48.922;9.116;2023-02-14T02:39:28;1.60;;;1.60;;
7573;SDS011;3828;48.922;9.116;2023-02-14T02:42:13;2.10;;;2.10;;
7573;SDS011;3828;48.922;9.116;2023-02-14T02:44:51;1.90;;;1.90;;
7573;SDS011;3828;48.922;9.116;2023-02-14T02:47:28;2.17;;;2.17;;
7573;SDS011;3828;48.922;9.116;2023-02-14T02:50:08;1.73;;;1.73;;
7573;SDS011;3828;48.922;9.116;2023-02-14T02:53:05;1.63;;;1.63;;
7573;SDS011;3828;48.922;9.116;2023-02-14T02:55:43;1.50;;;1.50;;
7573;SDS011;3828;48.922;9.116;2023-02-14T02:58:31;1.77;;;1.77;;
7573;SDS011;3828;48.922;9.116;2023-02-14T03:01:07;1.90;;;1.90;;
7573;SDS011;3828;48.922;9.116;2023-02-14T03:03:36;1.80;;;1.80;;
7573;SDS011;3828;48.922;9.116;2023-02-14T03:06:23;1.70;;;1.70;;
7573;SDS011;3828;48.922;9.116;2023-02-14T03:08:51;1.80;;;1.80;;
7573;SDS011;3828;48.922;9.116;2023-02-14T03:11:18;1.70;;;1.70;;
7573;SDS011;3828;48.922;9.116;2023-02-14T03:16:45;1.70;;;1.70;;
7573;SDS011;3828;48.922;9.116;2023-02-14T03:19:26;2.00;;;2.00;;
7573;SDS011;3828;48.922;9.116;2023-02-14T03:22:20;1.80;;;1.80;;
7573;SDS011;3828;48.922;9.116;2023-02-14T03:25:02;1.80;;;1.80;;
7573;SDS011;3828;48.922;9.116;2023-02-14T03:27:37;1.83;;;1.83;;
7573;SDS011;3828;48.922;9.116;2023-02-14T03:30:13;1.80;;;1.80;;
7573;SDS011;3828;48.922;9.116;2023-02-14T03:32:45;2.00;;;2.00;;
7573;SDS011;3828;48.922;9.116;2023-02-14T03:35:18;1.60;;;1.60;;
7573;SDS011;3828;48.922;9.116;2023-02-14T03:37:50;1.73;;;1.73;;
7573;SDS011;3828;48.922;9.116;2023-02-14T03:40:29;2.10;;;2.10;;
7573;SDS011;3828;48.922;9.116;2023-02-14T03:43:01;1.80;;;1.80;;
7573;SDS011;3828;48.922;9.116;2023-02-14T03:45:35;2.00;;;2.00;;
7573;SDS011;3828;48.922;9.116;2023-02-14T03:48:06;1.90;;;1.90;;
7573;SDS011;3828;48.922;9.116;2023-02-14T03:50:35;1.73;;;1.73;;
7573;SDS011;3828;48.922;9.116;2023-02-14T03:53:09;1.70;;;1.70;;
7573;SDS011;3828;48.922;9.116;2023-02-14T03:55:40;1.70;;;1.70;;
7573;SDS011;3828;48.922;9.116;2023-02-14T03:58:13;1.73;;;1.73;;
7573;SDS011;3828;48.922;9.116;2023-02-14T04:00:45;1.63;;;1.63;;
7573;SDS011;3828;48.922;9.116;2023-02-14T04:03:15;2.00;;;2.00;;
7573;SDS011;3828;48.922;9.116;2023-02-14T04:05:44;1.70;;;1.70;;
7573;SDS011;3828;48.922;9.116;2023-02-14T04:08:19;1.80;;;1.80;;
7573;SDS011;3828;48.922;9.116;2023-02-14T04:10:49;1.80;;;1.80;;
7573;SDS011;3828;48.922;9.116;2023-02-14T04:13:16;2.00;;;2.00;;
7573;SDS011;3828;48.922;9.116;2023-02-14T04:15:43;1.87;;;1.87;;
7573;SDS011;3828;48.922;9.116;2023-02-14T04:18:10;1.90;;;1.90;;
7573;SDS011;3828;48.922;9.116;2023-02-14T04:20:54;2.17;;;2.17;;
7573;SDS011;3828;48.922;9.116;2023-02-14T04:23:21;1.73;;;1.73;;
7573;SDS011;3828;48.922;9.116;2023-02-14T04:25:49;2.00;;;2.00;;
7573;SDS011;3828;48.922;9.116;2023-02-14T04:28:16;1.90;;;1.90;;
7573;SDS011;3828;48.922;9.116;2023-02-14T04:30:43;1.77;;;1.77;;
7573;SDS011;3828;48.922;9.116;2023-02-14T04:33:09;1.60;;;1.60;;
7573;SDS011;3828;48.922;9.116;2023-02-14T04:35:36;1.87;;;1.87;;
7573;SDS011;3828;48.922;9.116;2023-02-14T04:38:03;1.87;;;1.87;;
7573;SDS011;3828;48.922;9.116;2023-02-14T04:40:30;2.00;;;2.00;;
7573;SDS011;3828;48.922;9.116;2023-02-14T04:42:58;1.83;;;1.83;;
7573;SDS011;3828;48.922;9.116;2023-02-14T04:45:26;1.90;;;1.90;;
7573;SDS011;3828;48.922;9.116;2023-02-14T04:47:52;1.90;;;1.90;;
7573;SDS011;3828;48.922;9.116;2023-02-14T04:50:19;2.10;;;2.10;;
7573;SDS011;3828;48.922;9.116;2023-02-14T04:52:47;1.90;;;1.90;;
7573;SDS011;3828;48.922;9.116;2023-02-14T04:55:14;2.03;;;2.03;;
7573;SDS011;3828;48.922;9.116;2023-02-14T04:57:40;1.67;;;1.67;;
7573;SDS011;3828;48.922;9.116;2023-02-14T05:00:09;2.53;;;2.53;;
7573;SDS011;3828;48.922;9.116;2023-02-14T05:02:37;1.80;;;1.80;;
7573;SDS011;3828;48.922;9.116;2023-02-14T05:05:04;1.93;;;1.93;;
7573;SDS011;3828;48.922;9.116;2023-02-14T05:07:31;2.00;;;2.00;;
7573;SDS011;3828;48.922;9.116;2023-02-14T05:09:58;1.80;;;1.80;;
7573;SDS011;3828;48.922;9.116;2023-02-14T05:12:25;1.90;;;1.90;;
7573;SDS011;3828;48.922;9.116;2023-02-14T05:14:52;2.10;;;2.10;;
7573;SDS011;3828;48.922;9.116;2023-02-14T05:17:21;1.70;;;1.70;;
7573;SDS011;3828;48.922;9.116;2023-02-14T05:19:48;2.17;;;2.17;;
7573;SDS011;3828;48.922;9.116;2023-02-14T05:22:15;1.77;;;1.77;;
7573;SDS011;3828;48.922;9.116;2023-02-14T05:24:42;1.70;;;1.70;;
7573;SDS011;3828;48.922;9.116;2023-02-14T05:27:09;2.10;;;2.10;;
7573;SDS011;3828;48.922;9.116;2023-02-14T05:29:36;2.20;;;2.20;;
7573;SDS011;3828;48.922;9.116;2023-02-14T05:32:03;1.80;;;1.80;;
7573;SDS011;3828;48.922;9.116;2023-02-14T05:34:31;2.10;;;2.10;;
7573;SDS011;3828;48.922;9.116;2023-02-14T05:36:58;1.90;;;1.90;;
7573;SDS011;3828;48.922;9.116;2023-02-14T05:39:26;1.90;;;1.90;;
7573;SDS011;3828;48.922;9.116;2023-02-14T05:41:53;1.83;;;1.83;;
7573;SDS011;3828;48.922;9.116;2023-02-14T05:44:20;1.87;;;1.87;;
7573;SDS011;3828;48.922;9.116;2023-02-14T05:46:47;1.70;;;1.70;;
7573;SDS011;3828;48.922;9.116;2023-02-14T05:49:13;2.07;;;2.07;;
7573;SDS011;3828;48.922;9.116;2023-02-14T05:51:42;1.70;;;1.70;;
7573;SDS011;3828;48.922;9.116;2023-02-14T05:54:08;1.40;;;1.40;;
7573;SDS011;3828;48.922;9.116;2023-02-14T05:56:35;1.73;;;1.73;;
7573;SDS011;3828;48.922;9.116;2023-02-14T05:59:02;2.23;;;2.23;;
7573;SDS011;3828;48.922;9.116;2023-02-14T06:01:29;1.90;;;1.90;;
7573;SDS011;3828;48.922;9.116;2023-02-14T06:03:56;1.73;;;1.73;;
7573;SDS011;3828;48.922;9.116;2023-02-14T06:06:23;1.90;;;1.90;;
7573;SDS011;3828;48.922;9.116;2023-02-14T06:08:51;1.73;;;1.73;;
7573;SDS011;3828;48.922;9.116;2023-02-14T06:11:18;2.10;;;2.10;;
7573;SDS011;3828;48.922;9.116;2023-02-14T06:13:45;1.70;;;1.70;;
7573;SDS011;3828;48.922;9.116;2023-02-14T06:16:12;2.00;;;2.00;;
7573;SDS011;3828;48.922;9.116;2023-02-14T06:18:38;1.97;;;1.97;;
7573;SDS011;3828;48.922;9.116;2023-02-14T06:21:05;1.70;;;1.70;;
7573;SDS011;3828;48.922;9.116;2023-02-14T06:23:32;1.70;;;1.70;;
7573;SDS011;3828;48.922;9.116;2023-02-14T06:26:00;2.13;;;2.13;;
7573;SDS011;3828;48.922;9.116;2023-02-14T06:28:27;1.73;;;1.73;;
7573;SDS011;3828;48.922;9.116;2023-02-14T06:30:54;1.83;;;1.83;;
7573;SDS011;3828;48.922;9.116;2023-02-14T06:33:21;1.90;;;1.90;;
7573;SDS011;3828;48.922;9.116;2023-02-14T06:35:48;2.30;;;2.30;;
7573;SDS011;3828;48.922;9.116;2023-02-14T06:38:15;1.90;;;1.90;;
7573;SDS011;3828;48.922;9.116;2023-02-14T06:40:42;2.00;;;2.00;;
7573;SDS011;3828;48.922;9.116;2023-02-14T06:43:10;2.00;;;2.00;;
7573;SDS011;3828;48.922;9.116;2023-02-14T06:45:37;2.00;;;2.00;;
7573;SDS011;3828;48.922;9.116;2023-02-14T06:48:04;2.10;;;2.10;;
7573;SDS011;3828;48.922;9.116;2023-02-14T06:50:31;2.00;;;2.00;;
7573;SDS011;3828;48.922;9.116;2023-02-14T06:52:58;1.90;;;1.90;;
7573;SDS011;3828;48.922;9.116;2023-02-14T06:55:24;1.80;;;1.80;;
7573;SDS011;3828;48.922;9.116;2023-02-14T06:57:51;1.80;;;1.80;;
7573;SDS011;3828;48.922;9.116;2023-02-14T07:00:20;1.83;;;1.83;;
7573;SDS011;3828;48.922;9.116;2023-02-14T07:02:47;2.00;;;2.00;;
7573;SDS011;3828;48.922;9.116;2023-02-14T07:05:14;1.80;;;1.80;;
7573;SDS011;3828;48.922;9.116;2023-02-14T07:07:42;1.90;;;1.90;;
7573;SDS011;3828;48.922;9.116;2023-02-14T07:10:09;1.70;;;1.70;;
7573;SDS011;3828;48.922;9.116;2023-02-14T07:12:37;1.70;;;1.70;;
7573;SDS011;3828;48.922;9.116;2023-02-14T07:15:04;2.00;;;2.00;;
7573;SDS011;3828;48.922;9.116;2023-02-14T07:17:32;1.90;;;1.90;;
7573;SDS011;3828;48.922;9.116;2023-02-14T07:19:59;2.00;;;2.00;;
7573;SDS011;3828;48.922;9.116;2023-02-14T07:22:26;1.70;;;1.70;;
7573;SDS011;3828;48.922;9.116;2023-02-14T07:24:52;1.93;;;1.93;;
7573;SDS011;3828;48.922;9.116;2023-02-14T07:27:19;1.60;;;1.60;;
7573;SDS011;3828;48.922;9.116;2023-02-14T07:29:46;2.03;;;2.03;;
7573;SDS011;3828;48.922;9.116;2023-02-14T07:32:13;1.60;;;1.60;;
7573;SDS011;3828;48.922;9.116;2023-02-14T07:34:41;1.70;;;1.70;;
7573;SDS011;3828;48.922;9.116;2023-02-14T07:37:08;1.93;;;1.93;;
7573;SDS011;3828;48.922;9.116;2023-02-14T07:39:34;1.70;;;1.70;;
7573;SDS011;3828;48.922;9.116;2023-02-14T07:42:01;1.77;;;1.77;;
7573;SDS011;3828;48.922;9.116;2023-02-14T07:44:28;1.33;;;1.33;;
7573;SDS011;3828;48.922;9.116;2023-02-14T07:46:55;1.93;;;1.93;;
7573;SDS011;3828;48.922;9.116;2023-02-14T07:49:22;1.50;;;1.50;;
7573;SDS011;3828;48.922;9.116;2023-02-14T07:51:50;1.63;;;1.63;;
7573;SDS011;3828;48.922;9.116;2023-02-14T07:54:17;1.40;;;1.40;;
7573;SDS011;3828;48.922;9.116;2023-02-14T07:56:44;1.57;;;1.57;;
7573;SDS011;3828;48.922;9.116;2023-02-14T07:59:11;1.40;;;1.40;;
7573;SDS011;3828;48.922;9.116;2023-02-14T08:01:38;1.43;;;1.43;;
7573;SDS011;3828;48.922;9.116;2023-02-14T08:04:05;1.10;;;1.10;;
7573;SDS011;3828;48.922;9.116;2023-02-14T08:06:32;1.20;;;1.20;;
7573;SDS011;3828;48.922;9.116;2023-02-14T08:09:08;1.20;;;1.20;;
7573;SDS011;3828;48.922;9.116;2023-02-14T08:11:36;1.10;;;1.10;;
7573;SDS011;3828;48.922;9.116;2023-02-14T08:14:21;1.20;;;1.20;;
7573;SDS011;3828;48.922;9.116;2023-02-14T08:20:11;1.50;;;1.50;;
7573;SDS011;3828;48.922;9.116;2023-02-14T08:22:38;1.30;;;1.30;;
7573;SDS011;3828;48.922;9.116;2023-02-14T08:25:09;0.90;;;0.90;;
7573;SDS011;3828;48.922;9.116;2023-02-14T08:27:36;1.10;;;1.10;;
7573;SDS011;3828;48.922;9.116;2023-02-14T08:30:03;1.00;;;1.00;;
7573;SDS011;3828;48.922;9.116;2023-02-14T08:32:30;1.00;;;1.00;;
7573;SDS011;3828;48.922;9.116;2023-02-14T08:37:43;0.90;;;0.90;;
7573;SDS011;3828;48.922;9.116;2023-02-14T08:40:11;0.80;;;0.80;;
7573;SDS011;3828;48.922;9.116;2023-02-14T08:42:38;0.80;;;0.80;;
7573;SDS011;3828;48.922;9.116;2023-02-14T08:45:06;1.00;;;1.00;;
7573;SDS011;3828;48.922;9.116;2023-02-14T08:47:33;0.80;;;0.80;;
7573;SDS011;3828;48.922;9.116;2023-02-14T08:50:02;0.80;;;0.80;;
7573;SDS011;3828;48.922;9.116;2023-02-14T08:52:31;0.80;;;0.80;;
7573;SDS011;3828;48.922;9.116;2023-02-14T08:54:58;0.80;;;0.80;;
7573;SDS011;3828;48.922;9.116;2023-02-14T08:57:27;0.80;;;0.80;;
7573;SDS011;3828;48.922;9.116;2023-02-14T08:59:54;0.80;;;0.80;;
7573;SDS011;3828;48.922;9.116;2023-02-14T09:02:21;0.80;;;0.80;;
7573;SDS011;3828;48.922;9.116;2023-02-14T09:04:48;0.93;;;0.93;;
7573;SDS011;3828;48.922;9.116;2023-02-14T09:07:15;0.70;;;0.70;;
7573;SDS011;3828;48.922;9.116;2023-02-14T09:09:43;0.83;;;0.83;;
7573;SDS011;3828;48.922;9.116;2023-02-14T09:12:10;0.80;;;0.80;;
7573;SDS011;3828;48.922;9.116;2023-02-14T09:14:39;1.00;;;1.00;;
7573;SDS011;3828;48.922;9.116;2023-02-14T09:17:09;0.80;;;0.80;;
7573;SDS011;3828;48.922;9.116;2023-02-14T09:19:36;0.90;;;0.90;;
7573;SDS011;3828;48.922;9.116;2023-02-14T09:22:04;0.90;;;0.90;;
7573;SDS011;3828;48.922;9.116;2023-02-14T09:24:32;1.07;;;1.07;;
7573;SDS011;3828;48.922;9.116;2023-02-14T09:26:59;0.87;;;0.87;;
7573;SDS011;3828;48.922;9.116;2023-02-14T09:29:26;1.30;;;1.30;;
7573;SDS011;3828;48.922;9.116;2023-02-14T09:31:56;1.00;;;1.00;;
7573;SDS011;3828;48.922;9.116;2023-02-14T09:34:24;1.17;;;1.17;;
7573;SDS011;3828;48.922;9.116;2023-02-14T09:36:52;1.07;;;1.07;;
7573;SDS011;3828;48.922;9.116;2023-02-14T09:39:19;0.90;;;0.90;;
7573;SDS011;3828;48.922;9.116;2023-02-14T09:41:52;1.00;;;1.00;;
7573;SDS011;3828;48.922;9.116;2023-02-14T09:44:29;1.00;;;1.00;;
7573;SDS011;3828;48.922;9.116;2023-02-14T09:47:03;1.03;;;1.03;;
7573;SDS011;3828;48.922;9.116;2023-02-14T09:49:36;0.90;;;0.90;;
7573;SDS011;3828;48.922;9.116;2023-02-14T09:52:05;0.90;;;0.90;;
7573;SDS011;3828;48.922;9.116;2023-02-14T09:54:37;0.83;;;0.83;;
7573;SDS011;3828;48.922;9.116;2023-02-14T09:57:09;0.80;;;0.80;;
7573;SDS011;3828;48.922;9.116;2023-02-14T09:59:42;0.70;;;0.70;;
7573;SDS011;3828;48.922;9.116;2023-02-14T10:02:20;0.50;;;0.50;;
7573;SDS011;3828;48.922;9.116;2023-02-14T10:05:01;0.90;;;0.90;;
7573;SDS011;3828;48.922;9.116;2023-02-14T10:07:37;0.80;;;0.80;;
7573;SDS011;3828;48.922;9.116;2023-02-14T10:10:12;0.77;;;0.77;;
7573;SDS011;3828;48.922;9.116;2023-02-14T10:12:42;0.70;;;0.70;;
7573;SDS011;3828;48.922;9.116;2023-02-14T10:15:13;0.60;;;0.60;;
7573;SDS011;3828;48.922;9.116;2023-02-14T10:17:45;0.57;;;0.57;;
7573;SDS011;3828;48.922;9.116;2023-02-14T10:20:20;0.60;;;0.60;;
7573;SDS011;3828;48.922;9.116;2023-02-14T10:22:53;0.60;;;0.60;;
7573;SDS011;3828;48.922;9.116;2023-02-14T10:25:23;0.50;;;0.50;;
7573;SDS011;3828;48.922;9.116;2023-02-14T10:27:54;0.90;;;0.90;;
7573;SDS011;3828;48.922;9.116;2023-02-14T10:30:23;0.53;;;0.53;;
7573;SDS011;3828;48.922;9.116;2023-02-14T10:32:55;0.73;;;0.73;;
7573;SDS011;3828;48.922;9.116;2023-02-14T10:35:30;0.50;;;0.50;;
7573;SDS011;3828;48.922;9.116;2023-02-14T10:38:05;0.53;;;0.53;;
7573;SDS011;3828;48.922;9.116;2023-02-14T10:40:51;0.60;;;0.60;;
7573;SDS011;3828;48.922;9.116;2023-02-14T10:43:35;0.53;;;0.53;;
7573;SDS011;3828;48.922;9.116;2023-02-14T10:46:10;0.40;;;0.40;;
7573;SDS011;3828;48.922;9.116;2023-02-14T10:48:48;0.50;;;0.50;;
7573;SDS011;3828;48.922;9.116;2023-02-14T10:51:23;0.40;;;0.40;;
7573;SDS011;3828;48.922;9.116;2023-02-14T10:53:59;0.50;;;0.50;;
7573;SDS011;3828;48.922;9.116;2023-02-14T10:56:39;0.47;;;0.47;;
7573;SDS011;3828;48.922;9.116;2023-02-14T10:59:13;0.50;;;0.50;;
7573;SDS011;3828;48.922;9.116;2023-02-14T11:01:43;0.70;;;0.70;;
7573;SDS011;3828;48.922;9.116;2023-02-14T11:04:13;0.50;;;0.50;;
7573;SDS011;3828;48.922;9.116;2023-02-14T11:06:42;0.50;;;0.50;;
7573;SDS011;3828;48.922;9.116;2023-02-14T11:09:12;0.30;;;0.30;;
7573;SDS011;3828;48.922;9.116;2023-02-14T11:11:40;0.40;;;0.40;;
7573;SDS011;3828;48.922;9.116;2023-02-14T11:14:20;0.40;;;0.40;;
7573;SDS011;3828;48.922;9.116;2023-02-14T11:16:48;0.40;;;0.40;;
7573;SDS011;3828;48.922;9.116;2023-02-14T11:19:21;0.43;;;0.43;;
7573;SDS011;3828;48.922;9.116;2023-02-14T11:21:51;0.40;;;0.40;;
7573;SDS011;3828;48.922;9.116;2023-02-14T11:24:21;0.50;;;0.50;;
7573;SDS011;3828;48.922;9.116;2023-02-14T11:26:53;0.30;;;0.30;;
7573;SDS011;3828;48.922;9.116;2023-02-14T11:29:24;0.30;;;0.30;;
7573;SDS011;3828;48.922;9.116;2023-02-14T11:31:54;0.40;;;0.40;;
7573;SDS011;3828;48.922;9.116;2023-02-14T11:34:32;0.30;;;0.30;;
7573;SDS011;3828;48.922;9.116;2023-02-14T11:37:03;0.50;;;0.50;;
7573;SDS011;3828;48.922;9.116;2023-02-14T11:39:43;0.40;;;0.40;;
7573;SDS011;3828;48.922;9.116;2023-02-14T11:42:11;0.40;;;0.40;;
7573;SDS011;3828;48.922;9.116;2023-02-14T11:44:38;0.47;;;0.47;;
7573;SDS011;3828;48.922;9.116;2023-02-14T11:47:24;0.30;;;0.30;;
7573;SDS011;3828;48.922;9.116;2023-02-14T11:49:56;0.70;;;0.70;;
7573;SDS011;3828;48.922;9.116;2023-02-14T11:52:25;0.30;;;0.30;;
7573;SDS011;3828;48.922;9.116;2023-02-14T11:54:54;0.43;;;0.43;;
7573;SDS011;3828;48.922;9.116;2023-02-14T11:57:22;0.40;;;0.40;;
7573;SDS011;3828;48.922;9.116;2023-02-14T11:59:52;0.53;;;0.53;;
7573;SDS011;3828;48.922;9.116;2023-02-14T12:02:25;0.40;;;0.40;;
7573;SDS011;3828;48.922;9.116;2023-02-14T12:04:58;1.10;;;1.10;;
7573;SDS011;3828;48.922;9.116;2023-02-14T12:07:29;0.50;;;0.50;;
7573;SDS011;3828;48.922;9.116;2023-02-14T12:10:05;0.50;;;0.50;;
7573;SDS011;3828;48.922;9.116;2023-02-14T12:12:47;0.63;;;0.63;;
7573;SDS011;3828;48.922;9.116;2023-02-14T12:15:23;0.60;;;0.60;;
7573;SDS011;3828;48.922;9.116;2023-02-14T12:20:59;0.70;;;0.70;;
7573;SDS011;3828;48.922;9.116;2023-02-14T12:23:34;0.50;;;0.50;;
7573;SDS011;3828;48.922;9.116;2023-02-14T12:26:10;0.57;;;0.57;;
7573;SDS011;3828;48.922;9.116;2023-02-14T12:28:44;0.50;;;0.50;;
7573;SDS011;3828;48.922;9.116;2023-02-14T12:31:15;0.67;;;0.67;;
7573;SDS011;3828;48.922;9.116;2023-02-14T12:33:42;0.50;;;0.50;;
7573;SDS011;3828;48.922;9.116;2023-02-14T12:36:13;0.57;;;0.57;;
7573;SDS011;3828;48.922;9.116;2023-02-14T12:38:52;0.63;;;0.63;;
7573;SDS011;3828;48.922;9.116;2023-02-14T12:41:31;0.40;;;0.40;;
7573;SDS011;3828;48.922;9.116;2023-02-14T12:44:06;0.50;;;0.50;;
7573;SDS011;3828;48.922;9.116;2023-02-14T12:46:54;0.40;;;0.40;;
7573;SDS011;3828;48.922;9.116;2023-02-14T12:55:34;0.60;;;0.60;;
7573;SDS011;3828;48.922;9.116;2023-02-14T12:58:16;0.30;;;0.30;;
7573;SDS011;3828;48.922;9.116;2023-02-14T13:00:57;0.60;;;0.60;;
7573;SDS011;3828;48.922;9.116;2023-02-14T13:03:43;0.40;;;0.40;;
7573;SDS011;3828;48.922;9.116;2023-02-14T13:06:23;0.67;;;0.67;;
7573;SDS011;3828;48.922;9.116;2023-02-14T13:09:04;0.57;;;0.57;;
7573;SDS011;3828;48.922;9.116;2023-02-14T13:11:44;0.50;;;0.50;;
7573;SDS011;3828;48.922;9.116;2023-02-14T13:14:45;0.30;;;0.30;;
7573;SDS011;3828;48.922;9.116;2023-02-14T13:17:24;0.50;;;0.50;;
7573;SDS011;3828;48.922;9.116;2023-02-14T13:19:59;0.70;;;0.70;;
7573;SDS011;3828;48.922;9.116;2023-02-14T13:22:37;0.50;;;0.50;;
7573;SDS011;3828;48.922;9.116;2023-02-14T13:25:12;0.40;;;0.40;;
7573;SDS011;3828;48.922;9.116;2023-02-14T13:27:54;0.77;;;0.77;;
7573;SDS011;3828;48.922;9.116;2023-02-14T13:30:22;0.50;;;0.50;;
7573;SDS011;3828;48.922;9.116;2023-02-14T13:32:53;0.70;;;0.70;;
7573;SDS011;3828;48.922;9.116;2023-02-14T13:35:24;0.50;;;0.50;;
7573;SDS011;3828;48.922;9.116;2023-02-14T13:37:54;0.50;;;0.50;;
7573;SDS011;3828;48.922;9.116;2023-02-14T13:40:25;0.60;;;0.60;;
7573;SDS011;3828;48.922;9.116;2023-02-14T13:42:54;0.60;;;0.60;;
7573;SDS011;3828;48.922;9.116;2023-02-14T13:45:49;0.60;;;0.60;;
7573;SDS011;3828;48.922;9.116;2023-02-14T13:48:20;0.60;;;0.60;;
7573;SDS011;3828;48.922;9.116;2023-02-14T13:50:50;0.87;;;0.87;;
7573;SDS011;3828;48.922;9.116;2023-02-14T13:53:38;0.80;;;0.80;;
7573;SDS011;3828;48.922;9.116;2023-02-14T13:58:59;1.00;;;1.00;;
7573;SDS011;3828;48.922;9.116;2023-02-14T14:01:33;0.80;;;0.80;;
7573;SDS011;3828;48.922;9.116;2023-02-14T14:04:02;1.10;;;1.10;;
7573;SDS011;3828;48.922;9.116;2023-02-14T14:09:52;0.70;;;0.70;;
7573;SDS011;3828;48.922;9.116;2023-02-14T14:12:41;0.67;;;0.67;;
7573;SDS011;3828;48.922;9.116;2023-02-14T14:15:09;0.60;;;0.60;;
7573;SDS011;3828;48.922;9.116;2023-02-14T14:17:46;0.60;;;0.60;;
7573;SDS011;3828;48.922;9.116;2023-02-14T14:20:38;0.57;;;0.57;;
7573;SDS011;3828;48.922;9.116;2023-02-14T14:23:28;0.40;;;0.40;;
7573;SDS011;3828;48.922;9.116;2023-02-14T14:25:58;0.70;;;0.70;;
7573;SDS011;3828;48.922;9.116;2023-02-14T14:28:27;0.60;;;0.60;;
7573;SDS011;3828;48.922;9.116;2023-02-14T14:30:56;0.80;;;0.80;;
7573;SDS011;3828;48.922;9.116;2023-02-14T14:33:24;0.70;;;0.70;;
7573;SDS011;3828;48.922;9.116;2023-02-14T14:35:53;0.67;;;0.67;;
7573;SDS011;3828;48.922;9.116;2023-02-14T14:38:22;0.57;;;0.57;;
7573;SDS011;3828;48.922;9.116;2023-02-14T14:40:49;0.60;;;0.60;;
7573;SDS011;3828;48.922;9.116;2023-02-14T14:43:19;0.60;;;0.60;;
7573;SDS011;3828;48.922;9.116;2023-02-14T14:45:53;0.80;;;0.80;;
7573;SDS011;3828;48.922;9.116;2023-02-14T14:48:25;0.90;;;0.90;;
7573;SDS011;3828;48.922;9.116;2023-02-14T14:50:55;0.87;;;0.87;;
7573;SDS011;3828;48.922;9.116;2023-02-14T14:53:23;0.80;;;0.80;;
7573;SDS011;3828;48.922;9.116;2023-02-14T14:55:53;1.00;;;1.00;;
7573;SDS011;3828;48.922;9.116;2023-02-14T14:58:31;0.97;;;0.97;;
7573;SDS011;3828;48.922;9.116;2023-02-14T15:01:02;0.70;;;0.70;;
7573;SDS011;3828;48.922;9.116;2023-02-14T15:03:29;0.80;;;0.80;;
7573;SDS011;3828;48.922;9.116;2023-02-14T15:06:08;0.80;;;0.80;;
7573;SDS011;3828;48.922;9.116;2023-02-14T15:08:41;0.43;;;0.43;;
7573;SDS011;3828;48.922;9.116;2023-02-14T15:11:09;0.60;;;0.60;;
7573;SDS011;3828;48.922;9.116;2023-02-14T15:13:58;0.60;;;0.60;;
7573;SDS011;3828;48.922;9.116;2023-02-14T15:16:28;1.00;;;1.00;;
7573;SDS011;3828;48.922;9.116;2023-02-14T15:19:05;0.60;;;0.60;;
7573;SDS011;3828;48.922;9.116;2023-02-14T15:21:34;0.60;;;0.60;;
7573;SDS011;3828;48.922;9.116;2023-02-14T15:24:01;0.63;;;0.63;;
7573;SDS011;3828;48.922;9.116;2023-02-14T15:26:29;0.60;;;0.60;;
7573;SDS011;3828;48.922;9.116;2023-02-14T15:28:58;0.60;;;0.60;;
7573;SDS011;3828;48.922;9.116;2023-02-14T15:31:39;0.50;;;0.50;;
7573;SDS011;3828;48.922;9.116;2023-02-14T15:34:06;0.57;;;0.57;;
7573;SDS011;3828;48.922;9.116;2023-02-14T15:36:33;0.57;;;0.57;;
7573;SDS011;3828;48.922;9.116;2023-02-14T15:39:02;0.60;;;0.60;;
7573;SDS011;3828;48.922;9.116;2023-02-14T15:41:31;0.60;;;0.60;;
7573;SDS011;3828;48.922;9.116;2023-02-14T15:43:58;0.50;;;0.50;;
7573;SDS011;3828;48.922;9.116;2023-02-14T15:46:27;0.47;;;0.47;;
7573;SDS011;3828;48.922;9.116;2023-02-14T15:48:59;0.70;;;0.70;;
7573;SDS011;3828;48.922;9.116;2023-02-14T15:51:33;0.60;;;0.60;;
7573;SDS011;3828;48.922;9.116;2023-02-14T15:54:01;0.70;;;0.70;;
7573;SDS011;3828;48.922;9.116;2023-02-14T15:56:29;0.80;;;0.80;;
7573;SDS011;3828;48.922;9.116;2023-02-14T15:58:59;0.70;;;0.70;;
7573;SDS011;3828;48.922;9.116;2023-02-14T16:01:28;0.83;;;0.83;;
7573;SDS011;3828;48.922;9.116;2023-02-14T16:03:57;0.90;;;0.90;;
7573;SDS011;3828;48.922;9.116;2023-02-14T16:06:30;1.10;;;1.10;;